createdAt,value
2023-04-26T00:01:58.679Z,50.15
2023-04-26T00:04:31.686Z,49.26
2023-04-26T00:07:04.046Z,47.40
2023-04-26T00:09:36.365Z,49.94
2023-04-26T00:12:08.992Z,51.04
2023-04-26T00:14:43.996Z,48.01
2023-04-26T00:17:16.309Z,49.09
2023-04-26T00:19:48.527Z,47.92
2023-04-26T00:22:20.730Z,48.12
2023-04-26T00:24:52.998Z,49.67
2023-04-26T00:27:29.591Z,48.95
2023-04-26T00:30:04.402Z,52.64
2023-04-26T00:32:36.715Z,49.74
2023-04-26T00:35:09.463Z,46.39
2023-04-26T00:37:41.733Z,47.90
2023-04-26T00:40:16.384Z,46.44
2023-04-26T00:42:48.558Z,46.87
2023-04-26T00:45:23.477Z,50.59
2023-04-26T00:47:56.887Z,53.09
2023-04-26T00:50:32.284Z,51.06
2023-04-26T00:53:07.854Z,52.01
2023-04-26T00:55:40.513Z,50.76
2023-04-26T00:58:12.741Z,50.51
2023-04-26T01:00:47.639Z,50.58
2023-04-26T01:03:20.109Z,52.11
2023-04-26T01:05:53.210Z,51.90
2023-04-26T01:08:25.901Z,53.59
2023-04-26T01:11:01.673Z,51.63
2023-04-26T01:13:35.814Z,49.13
2023-04-26T01:16:12.590Z,50.97
2023-04-26T01:18:45.756Z,51.20
2023-04-26T01:21:24.677Z,51.87
2023-04-26T01:23:59.396Z,52.21
2023-04-26T01:26:31.813Z,51.79
2023-04-26T01:29:04.527Z,52.11
2023-04-26T01:31:36.750Z,52.91
2023-04-26T01:34:09.044Z,53.91
2023-04-26T01:36:41.389Z,55.11
2023-04-26T01:39:16.196Z,51.69
2023-04-26T01:41:48.362Z,53.90
2023-04-26T01:44:20.864Z,54.02
2023-04-26T01:46:53.055Z,54.58
2023-04-26T01:49:25.276Z,57.11
2023-04-26T01:51:57.832Z,57.04
2023-04-26T01:54:32.657Z,59.74
2023-04-26T01:57:05.445Z,58.79
2023-04-26T01:59:37.639Z,61.91
2023-04-26T02:02:09.981Z,65.98
2023-04-26T02:04:42.411Z,63.28
2023-04-26T02:07:14.651Z,62.96
2023-04-26T02:09:49.404Z,61.20
2023-04-26T02:12:21.581Z,63.70
2023-04-26T02:14:53.855Z,60.04
2023-04-26T02:17:26.648Z,59.06
2023-04-26T02:19:58.953Z,59.41
2023-04-26T02:22:31.438Z,58.51
2023-04-26T02:25:06.224Z,58.67
2023-04-26T02:27:38.497Z,59.91
2023-04-26T02:30:12.181Z,57.27
2023-04-26T02:32:44.393Z,59.21
2023-04-26T02:35:16.675Z,57.86
2023-04-26T02:37:49.547Z,59.89
2023-04-26T02:40:24.975Z,59.99
2023-04-26T02:42:57.157Z,57.86
2023-04-26T02:45:29.456Z,56.78
2023-04-26T02:48:01.619Z,59.24
2023-04-26T02:50:34.210Z,56.75
2023-04-26T02:53:06.435Z,58.84
2023-04-26T02:55:41.799Z,57.56
2023-04-26T02:58:13.966Z,57.86
2023-04-26T03:00:50.723Z,57.67
2023-04-26T03:03:23.348Z,62.96
2023-04-26T03:05:55.776Z,63.94
2023-04-26T03:08:27.931Z,64.71
2023-04-26T03:11:02.672Z,66.38
2023-04-26T03:13:34.843Z,66.74
2023-04-26T03:16:07.128Z,69.95
2023-04-26T03:18:39.530Z,70.48
2023-04-26T03:21:12.066Z,69.58
2023-04-26T03:23:44.364Z,68.72
2023-04-26T03:26:19.333Z,71.81
2023-04-26T03:28:51.740Z,74.74
2023-04-26T03:31:24.301Z,72.37
2023-04-26T03:33:56.723Z,73.89
2023-04-26T03:36:28.954Z,72.39
2023-04-26T03:39:01.577Z,72.09
2023-04-26T03:41:39.678Z,73.39
2023-04-26T03:44:12.576Z,72.39
2023-04-26T03:46:44.820Z,74.14
2023-04-26T03:49:16.964Z,77.78
2023-04-26T03:51:49.140Z,73.35
2023-04-26T03:54:21.284Z,74.64
2023-04-26T03:56:56.139Z,73.66
2023-04-26T03:59:28.338Z,70.56
2023-04-26T04:02:01.112Z,69.94
2023-04-26T04:04:33.438Z,67.21
2023-04-26T04:07:05.965Z,68.56
2023-04-26T04:09:38.145Z,65.84
2023-04-26T04:12:12.946Z,64.54
2023-04-26T04:14:45.174Z,67.33
2023-04-26T04:17:17.404Z,67.61
2023-04-26T04:19:49.893Z,67.17
2023-04-26T04:22:22.055Z,68.93
2023-04-26T04:24:54.563Z,69.29
2023-04-26T04:27:29.460Z,73.96
2023-04-26T04:30:03.743Z,76.54
2023-04-26T04:32:36.073Z,75.74
2023-04-26T04:35:08.746Z,77.58
2023-04-26T04:37:40.998Z,76.90
2023-04-26T04:40:14.848Z,76.08
2023-04-26T04:42:50.228Z,74.16
2023-04-26T04:45:22.685Z,73.56
2023-04-26T04:47:54.988Z,75.64
2023-04-26T04:50:27.335Z,75.83
2023-04-26T04:52:59.490Z,72.99
2023-04-26T04:55:32.315Z,74.04
2023-04-26T04:58:07.610Z,75.20
2023-04-26T05:00:40.428Z,79.09
2023-04-26T05:03:12.749Z,79.20
2023-04-26T05:05:45.512Z,79.79
2023-04-26T05:08:17.653Z,79.20
2023-04-26T05:10:50.115Z,81.09
2023-04-26T05:13:24.920Z,79.36
2023-04-26T05:15:57.137Z,77.02
2023-04-26T05:18:29.369Z,75.03
2023-04-26T05:21:02.246Z,76.43
2023-04-26T05:23:34.588Z,71.57
2023-04-26T05:26:07.782Z,75.56
2023-04-26T05:28:42.571Z,76.74
2023-04-26T05:31:14.778Z,75.54
2023-04-26T05:33:46.938Z,74.89
2023-04-26T05:36:19.667Z,77.27
2023-04-26T05:38:51.869Z,75.01
2023-04-26T05:41:24.031Z,77.27
2023-04-26T05:43:58.864Z,77.24
2023-04-26T05:46:31.133Z,77.06
2023-04-26T05:49:03.299Z,79.46
2023-04-26T05:51:35.482Z,77.00
2023-04-26T05:54:07.901Z,78.11
2023-04-26T05:56:40.114Z,77.00
2023-04-26T05:59:15.058Z,81.49
2023-04-26T06:01:47.263Z,84.40
2023-04-26T06:04:19.651Z,83.14
2023-04-26T06:06:52.024Z,80.39
2023-04-26T06:09:24.175Z,78.09
2023-04-26T06:11:56.453Z,74.89
2023-04-26T06:14:31.217Z,69.86
2023-04-26T06:17:03.519Z,72.74
2023-04-26T06:19:35.766Z,68.82
2023-04-26T06:22:07.869Z,64.31
2023-04-26T06:24:40.045Z,63.24
2023-04-26T06:27:12.449Z,64.06
2023-04-26T06:29:47.828Z,59.59
2023-04-26T06:32:19.995Z,60.18
2023-04-26T06:34:52.163Z,54.50
2023-04-26T06:37:24.295Z,51.44
2023-04-26T06:39:56.458Z,46.46
2023-04-26T06:42:28.633Z,44.63
2023-04-26T06:45:03.512Z,39.91
2023-04-26T06:47:35.790Z,40.06
2023-04-26T06:50:08.567Z,38.76
2023-04-26T06:52:40.828Z,42.20
2023-04-26T06:55:14.430Z,39.09
2023-04-26T06:57:46.586Z,44.34
2023-04-26T07:00:22.062Z,42.99
2023-04-26T07:02:54.328Z,43.49
2023-04-26T07:05:26.908Z,42.37
2023-04-26T07:07:59.022Z,43.75
2023-04-26T07:10:32.310Z,45.67
2023-04-26T07:13:06.420Z,40.01
2023-04-26T07:15:42.461Z,36.84
2023-04-26T07:18:14.806Z,39.06
2023-04-26T07:20:46.984Z,43.31
2023-04-26T07:23:19.131Z,43.34
2023-04-26T07:25:51.333Z,40.82
2023-04-26T07:28:23.427Z,41.95
2023-04-26T07:30:58.548Z,41.43
2023-04-26T07:33:31.282Z,32.00
2023-04-26T07:36:04.670Z,28.68
2023-04-26T07:38:36.893Z,27.04
2023-04-26T07:41:09.125Z,25.91
2023-04-26T07:43:41.614Z,27.70
2023-04-26T07:46:16.412Z,30.26
2023-04-26T07:48:48.797Z,29.36
2023-04-26T07:51:21.138Z,31.18
2023-04-26T07:53:53.703Z,32.74
2023-04-26T07:56:28.118Z,32.06
2023-04-26T07:59:00.265Z,35.86
2023-04-26T08:01:35.163Z,31.30
2023-04-26T08:04:08.477Z,31.89
2023-04-26T08:06:45.171Z,28.29
2023-04-26T08:09:17.347Z,23.90
2023-04-26T08:11:49.554Z,20.83
2023-04-26T08:14:21.789Z,22.59
2023-04-26T08:16:56.548Z,24.43
2023-04-26T08:19:32.882Z,18.94
2023-04-26T08:22:05.930Z,17.15
2023-04-26T08:24:38.130Z,15.26
2023-04-26T08:27:10.290Z,15.32
2023-04-26T08:29:43.151Z,13.51
2023-04-26T08:32:18.548Z,14.61
2023-04-26T08:34:51.182Z,14.80
2023-04-26T08:37:23.297Z,15.89
2023-04-26T08:39:55.552Z,15.02
2023-04-26T08:42:31.667Z,15.76
2023-04-26T08:45:05.830Z,16.24
2023-04-26T08:47:47.826Z,14.37
2023-04-26T08:50:23.383Z,14.58
2023-04-26T08:52:57.106Z,15.14
2023-04-26T08:55:31.176Z,13.66
2023-04-26T08:58:05.081Z,15.55
2023-04-26T09:00:37.434Z,17.94
2023-04-26T09:03:12.298Z,17.20
2023-04-26T09:05:46.551Z,16.04
2023-04-26T09:08:22.199Z,19.20
2023-04-26T09:10:54.351Z,21.76
2023-04-26T09:13:32.600Z,21.23
2023-04-26T09:16:05.258Z,20.01
2023-04-26T09:18:51.052Z,20.83
2023-04-26T09:21:23.909Z,19.52
2023-04-26T09:24:04.856Z,20.69
2023-04-26T09:26:37.113Z,21.46
2023-04-26T09:29:20.767Z,19.14
2023-04-26T09:31:54.540Z,18.51
2023-04-26T09:34:30.764Z,17.32
2023-04-26T09:37:02.965Z,16.99
2023-04-26T09:39:37.740Z,18.01
2023-04-26T09:42:11.476Z,18.23
2023-04-26T09:44:43.931Z,17.35
2023-04-26T09:47:16.416Z,18.26
2023-04-26T09:49:52.806Z,16.51
2023-04-26T09:52:25.558Z,16.44
2023-04-26T09:54:59.134Z,15.93
2023-04-26T09:57:31.579Z,18.01
2023-04-26T10:00:05.710Z,16.33
2023-04-26T10:02:39.250Z,14.99
2023-04-26T10:05:15.125Z,16.00
2023-04-26T10:07:47.603Z,17.11
2023-04-26T10:10:21.803Z,15.88
2023-04-26T10:12:54.145Z,16.84
2023-04-26T10:15:26.474Z,15.87
2023-04-26T10:17:58.727Z,14.31
2023-04-26T10:20:34.750Z,14.81
2023-04-26T10:23:17.320Z,15.44
2023-04-26T10:25:49.566Z,14.79
2023-04-26T10:28:22.417Z,15.31
2023-04-26T10:31:02.973Z,13.45
2023-04-26T10:33:35.282Z,15.40
2023-04-26T10:36:15.449Z,16.70
2023-04-26T10:39:24.964Z,14.91
2023-04-26T10:42:27.818Z,16.15
2023-04-26T10:45:00.790Z,17.22
2023-04-26T10:47:35.137Z,16.35
2023-04-26T10:50:12.940Z,16.76
2023-04-26T10:53:10.235Z,17.63
2023-04-26T10:55:46.784Z,17.61
2023-04-26T10:58:32.065Z,15.61
2023-04-26T11:01:11.996Z,15.79
2023-04-26T11:03:46.085Z,17.96
2023-04-26T11:06:19.425Z,17.26
2023-04-26T11:08:55.155Z,18.37
2023-04-26T11:11:32.966Z,17.84
2023-04-26T11:14:07.212Z,18.56
2023-04-26T11:16:39.588Z,15.87
2023-04-26T11:19:14.302Z,15.59
2023-04-26T11:21:46.465Z,15.42
2023-04-26T11:24:29.596Z,17.23
2023-04-26T11:27:03.235Z,17.06
2023-04-26T11:29:35.395Z,16.53
2023-04-26T11:32:08.152Z,16.69
2023-04-26T11:34:41.982Z,16.91
2023-04-26T11:37:14.191Z,16.69
2023-04-26T11:39:51.456Z,16.85
2023-04-26T11:42:29.788Z,16.60
2023-04-26T11:45:02.276Z,17.55
2023-04-26T11:47:35.408Z,17.41
2023-04-26T11:50:09.274Z,17.63
2023-04-26T11:52:42.672Z,18.66
2023-04-26T11:55:17.505Z,17.91
2023-04-26T11:57:49.849Z,18.40
2023-04-26T12:00:23.211Z,18.05
2023-04-26T12:02:57.763Z,17.66
2023-04-26T12:05:32.356Z,17.86
2023-04-26T12:08:05.824Z,17.46
2023-04-26T12:10:42.364Z,16.84
2023-04-26T12:13:18.825Z,18.42
2023-04-26T12:15:52.722Z,17.70
2023-04-26T12:18:28.650Z,16.76
2023-04-26T12:21:03.344Z,16.39
2023-04-26T12:23:42.267Z,17.13
2023-04-26T12:26:17.406Z,18.87
2023-04-26T12:28:49.731Z,17.35
2023-04-26T12:31:21.970Z,16.27
2023-04-26T12:33:54.142Z,18.29
2023-04-26T12:36:26.445Z,18.54
2023-04-26T12:38:59.168Z,19.46
2023-04-26T12:41:34.004Z,19.36
2023-04-26T12:44:06.564Z,20.49
2023-04-26T12:46:38.966Z,18.06
2023-04-26T12:49:11.329Z,19.39
2023-04-26T12:51:43.590Z,19.80
2023-04-26T12:54:16.099Z,23.03
2023-04-26T12:56:51.091Z,20.71
2023-04-26T12:59:23.248Z,21.55
2023-04-26T13:01:55.469Z,20.63
2023-04-26T13:04:27.969Z,20.56
2023-04-26T13:07:00.578Z,19.60
2023-04-26T13:09:33.262Z,20.45
2023-04-26T13:12:08.693Z,21.47
2023-04-26T13:14:41.404Z,22.83
2023-04-26T13:17:13.587Z,22.59
2023-04-26T13:19:45.781Z,23.65
2023-04-26T13:22:17.967Z,23.19
2023-04-26T13:24:50.409Z,23.86
2023-04-26T13:27:25.141Z,23.52
2023-04-26T13:29:57.808Z,22.55
2023-04-26T13:32:30.182Z,24.19
2023-04-26T13:35:02.837Z,21.56
2023-04-26T13:37:34.992Z,23.58
2023-04-26T13:40:07.653Z,23.54
2023-04-26T13:42:42.628Z,24.31
2023-04-26T13:45:17.072Z,25.04
2023-04-26T13:47:51.024Z,25.19
2023-04-26T13:50:23.309Z,24.80
2023-04-26T13:52:55.619Z,26.05
2023-04-26T13:55:29.983Z,27.51
2023-04-26T13:58:04.797Z,28.79
2023-04-26T14:00:37.029Z,27.02
2023-04-26T14:03:09.271Z,26.14
2023-04-26T14:05:41.591Z,28.04
2023-04-26T14:08:14.022Z,26.35
2023-04-26T14:10:46.352Z,24.95
2023-04-26T14:13:21.351Z,24.68
2023-04-26T14:15:54.063Z,22.56
2023-04-26T14:18:26.236Z,24.06
2023-04-26T14:20:58.409Z,26.64
2023-04-26T14:23:30.628Z,25.79
2023-04-26T14:26:02.810Z,24.69
2023-04-26T14:28:37.679Z,23.82
2023-04-26T14:31:09.940Z,26.00
2023-04-26T14:33:42.212Z,24.58
2023-04-26T14:36:14.531Z,22.75
2023-04-26T14:38:47.036Z,21.80
2023-04-26T14:41:19.679Z,23.86
2023-04-26T14:43:54.617Z,21.24
2023-04-26T14:46:26.880Z,20.67
2023-04-26T14:48:59.147Z,20.34
2023-04-26T14:51:32.166Z,20.01
2023-04-26T14:54:04.385Z,21.11
2023-04-26T14:56:37.480Z,20.95
2023-04-26T14:59:12.222Z,23.52
2023-04-26T15:01:44.455Z,23.34
2023-04-26T15:04:16.801Z,22.20
2023-04-26T15:06:49.177Z,23.50
2023-04-26T15:09:21.869Z,24.30
2023-04-26T15:11:54.421Z,22.40
2023-04-26T15:14:29.203Z,20.71
2023-04-26T15:17:01.537Z,22.47
2023-04-26T15:19:34.292Z,24.09
2023-04-26T15:22:06.462Z,23.47
2023-04-26T15:24:40.646Z,23.94
2023-04-26T15:27:12.905Z,23.21
2023-04-26T15:29:47.613Z,22.31
2023-04-26T15:32:19.732Z,23.26
2023-04-26T15:34:52.010Z,22.96
2023-04-26T15:37:24.151Z,23.26
2023-04-26T15:39:56.338Z,23.51
2023-04-26T15:42:28.510Z,24.14
2023-04-26T15:45:03.509Z,25.71
2023-04-26T15:47:35.736Z,23.77
2023-04-26T15:50:09.389Z,25.04
2023-04-26T15:52:42.678Z,23.16
2023-04-26T15:55:15.134Z,26.99
2023-04-26T15:57:47.390Z,24.26
2023-04-26T16:00:22.877Z,24.39
2023-04-26T16:02:55.199Z,25.94
2023-04-26T16:05:27.992Z,23.61
2023-04-26T16:08:00.539Z,21.96
2023-04-26T16:10:32.742Z,22.67
2023-04-26T16:13:04.992Z,20.11
2023-04-26T16:15:39.818Z,21.01
2023-04-26T16:18:12.185Z,21.01
2023-04-26T16:20:44.495Z,22.08
2023-04-26T16:23:16.819Z,23.78
2023-04-26T16:25:49.314Z,23.16
2023-04-26T16:28:21.506Z,22.84
2023-04-26T16:30:56.316Z,23.12
2023-04-26T16:33:28.932Z,23.19
2023-04-26T16:36:01.257Z,22.35
2023-04-26T16:38:33.401Z,22.86
2023-04-26T16:41:06.194Z,24.18
2023-04-26T16:43:38.548Z,23.65
2023-04-26T16:46:13.460Z,24.21
2023-04-26T16:48:45.767Z,24.99
2023-04-26T16:51:18.098Z,22.47
2023-04-26T16:53:50.243Z,25.52
2023-04-26T16:56:22.397Z,24.20
2023-04-26T16:58:54.527Z,26.25
2023-04-26T17:01:29.320Z,26.36
2023-04-26T17:04:02.115Z,26.25
2023-04-26T17:06:34.611Z,24.29
2023-04-26T17:09:08.356Z,25.46
2023-04-26T17:11:43.713Z,23.59
2023-04-26T17:14:15.957Z,24.79
2023-04-26T17:16:50.765Z,26.46
2023-04-26T17:19:23.035Z,26.59
2023-04-26T17:21:55.418Z,25.01
2023-04-26T17:24:27.553Z,25.89
2023-04-26T17:26:59.669Z,25.60
2023-04-26T17:29:31.889Z,24.85
2023-04-26T17:32:06.746Z,24.34
2023-04-26T17:34:39.034Z,25.16
2023-04-26T17:37:11.317Z,25.34
2023-04-26T17:39:43.489Z,25.66
2023-04-26T17:42:15.641Z,26.18
2023-04-26T17:44:47.837Z,26.56
2023-04-26T17:47:22.591Z,23.66
2023-04-26T17:49:54.834Z,24.24
2023-04-26T17:52:27.179Z,22.34
2023-04-26T17:54:59.725Z,23.94
2023-04-26T17:57:31.927Z,23.34
2023-04-26T18:00:04.282Z,23.79
2023-04-26T18:02:42.456Z,29.54
2023-04-26T18:05:15.497Z,32.68
2023-04-26T18:07:47.674Z,27.94
2023-04-26T18:10:19.800Z,31.36
2023-04-26T18:12:52.045Z,38.14
2023-04-26T18:15:24.616Z,32.70
2023-04-26T18:17:59.458Z,34.72
2023-04-26T18:20:31.750Z,42.71
2023-04-26T18:23:04.148Z,44.70
2023-04-26T18:25:36.454Z,34.62
2023-04-26T18:28:08.909Z,31.61
2023-04-26T18:30:41.269Z,27.88
2023-04-26T18:33:16.473Z,30.59
2023-04-26T18:35:48.653Z,31.94
2023-04-26T18:38:21.043Z,59.60
2023-04-26T18:40:53.851Z,97.00
2023-04-26T18:43:26.121Z,78.08
2023-04-26T18:45:59.042Z,56.00
2023-04-26T18:48:33.842Z,55.00
2023-04-26T18:51:06.321Z,57.59
2023-04-26T18:53:38.506Z,60.76
2023-04-26T18:56:11.136Z,47.89
2023-04-26T18:58:43.301Z,55.93
2023-04-26T19:01:15.500Z,81.04
2023-04-26T19:03:51.222Z,67.04
2023-04-26T19:06:23.527Z,43.91
2023-04-26T19:08:55.705Z,56.81
2023-04-26T19:11:28.415Z,63.06
2023-04-26T19:14:01.653Z,71.06
2023-04-26T19:16:33.895Z,48.94
2023-04-26T19:19:08.725Z,40.29
2023-04-26T19:21:40.948Z,43.02
2023-04-26T19:24:13.090Z,43.71
2023-04-26T19:26:45.237Z,40.59
2023-04-26T19:29:17.636Z,33.44
2023-04-26T19:31:49.970Z,31.46
2023-04-26T19:34:25.027Z,29.69
2023-04-26T19:36:57.183Z,31.54
2023-04-26T19:39:29.370Z,30.46
2023-04-26T19:42:01.677Z,40.62
2023-04-26T19:44:34.099Z,55.48
2023-04-26T19:47:06.446Z,90.89
2023-04-26T19:49:41.273Z,133.62
2023-04-26T19:52:13.640Z,116.12
2023-04-26T19:54:45.882Z,193.66
2023-04-26T19:57:18.107Z,147.79
2023-04-26T19:59:50.349Z,167.86
2023-04-26T20:02:22.772Z,179.66
2023-04-26T20:04:57.700Z,87.76
2023-04-26T20:07:30.006Z,84.55
2023-04-26T20:10:02.353Z,145.59
2023-04-26T20:12:34.574Z,78.70
2023-04-26T20:15:07.558Z,99.65
2023-04-26T20:17:39.997Z,106.90
2023-04-26T20:20:16.725Z,62.20
2023-04-26T20:22:49.003Z,46.54
2023-04-26T20:25:22.439Z,67.20
2023-04-26T20:27:56.839Z,92.21
2023-04-26T20:30:31.006Z,76.49
2023-04-26T20:33:03.299Z,64.90
2023-04-26T20:35:38.172Z,42.40
2023-04-26T20:38:10.360Z,41.83
2023-04-26T20:40:42.555Z,39.52
2023-04-26T20:43:14.855Z,38.58
2023-04-26T20:45:47.170Z,46.69
2023-04-26T20:48:19.394Z,40.81
2023-04-26T20:50:54.149Z,40.00
2023-04-26T20:53:27.206Z,39.20
2023-04-26T20:55:59.430Z,43.70
2023-04-26T20:58:31.647Z,46.55
2023-04-26T21:01:06.488Z,43.74
2023-04-26T21:03:39.584Z,46.85
2023-04-26T21:06:14.481Z,51.04
2023-04-26T21:08:46.652Z,52.74
2023-04-26T21:11:18.830Z,59.18
2023-04-26T21:13:51.131Z,61.54
2023-04-26T21:16:23.350Z,64.99
2023-04-26T21:18:55.521Z,59.41
2023-04-26T21:21:31.235Z,55.68
2023-04-26T21:24:04.079Z,55.46
2023-04-26T21:26:36.346Z,62.39
2023-04-26T21:29:08.936Z,73.61
2023-04-26T21:31:41.420Z,70.25
2023-04-26T21:34:13.631Z,63.04
2023-04-26T21:36:48.498Z,53.45
2023-04-26T21:39:21.010Z,48.42
2023-04-26T21:41:53.203Z,41.89
2023-04-26T21:44:25.394Z,38.80
2023-04-26T21:46:57.559Z,40.17
2023-04-26T21:49:29.734Z,37.19
2023-04-26T21:52:04.476Z,38.70
2023-04-26T21:54:36.781Z,43.64
2023-04-26T21:57:09.540Z,43.84
2023-04-26T21:59:43.844Z,45.07
2023-04-26T22:02:16.222Z,46.21
2023-04-26T22:04:48.499Z,48.26
2023-04-26T22:07:23.278Z,69.46
2023-04-26T22:09:55.488Z,83.19
2023-04-26T22:12:27.731Z,74.93
2023-04-26T22:15:00.164Z,59.76
2023-04-26T22:17:32.476Z,49.07
2023-04-26T22:20:05.432Z,46.01
2023-04-26T22:22:40.143Z,41.83
2023-04-26T22:25:13.363Z,40.44
2023-04-26T22:27:45.498Z,42.24
2023-04-26T22:30:25.512Z,37.88
2023-04-26T22:32:59.961Z,39.06
2023-04-26T22:35:32.829Z,40.48
2023-04-26T22:38:07.606Z,37.41
2023-04-26T22:40:39.863Z,40.91
2023-04-26T22:43:12.056Z,41.46
2023-04-26T22:45:45.216Z,40.23
2023-04-26T22:48:17.435Z,39.13
2023-04-26T22:50:52.463Z,39.42
2023-04-26T22:53:27.249Z,37.95
2023-04-26T22:55:59.424Z,40.35
2023-04-26T22:58:31.636Z,38.19
2023-04-26T23:01:03.875Z,44.09
2023-04-26T23:03:38.761Z,42.37
2023-04-26T23:06:11.505Z,44.05
2023-04-26T23:08:46.287Z,45.88
2023-04-26T23:11:19.061Z,42.52
2023-04-26T23:13:52.974Z,43.25
2023-04-26T23:16:25.650Z,46.40
2023-04-26T23:18:57.997Z,47.76
2023-04-26T23:21:30.602Z,52.08
2023-04-26T23:24:05.340Z,58.43
2023-04-26T23:26:37.536Z,54.09
2023-04-26T23:29:09.856Z,49.21
2023-04-26T23:31:42.210Z,48.44
2023-04-26T23:34:14.526Z,48.14
2023-04-26T23:36:46.852Z,51.06
2023-04-26T23:39:21.978Z,56.57
2023-04-26T23:41:54.078Z,54.49
2023-04-26T23:44:26.197Z,54.54
2023-04-26T23:46:58.394Z,54.61
2023-04-26T23:49:30.644Z,50.27
2023-04-26T23:52:02.809Z,53.80
2023-04-26T23:54:37.784Z,52.77
2023-04-26T23:57:09.974Z,52.79
2023-04-26T23:59:42.240Z,55.27
